CYVP

Kuujjuaq Airport

Airport
ICAO code
CYVP
Summary
ICAO Region
NAM
ICAO Territory
Location

Kuujjuaq, Quebec,

Coordinates
58° 6' 11" N , 68° 25' 8" W
KCC
Airport BS
Non Avian Wildlife Hazards to Aircraft
Airport CFIT
Altimeter Temperature Error Correction
Airport GND
Aircraft Ground De/Anti Icing
Airport RE
Crosswind Landings
Metar
Observation
CYVP 091900Z 25004KT 15SM FEW032 SCT095 M17/M19 A3044 RMK SC2AS1 SLP317
Station
Kuujjuaq, Que.
Date/Time
2022-12-09 19:00:00
Wind direction
250°
Wind speed
04 kts
Lowest cloud amount
few clouds
Temperature
-17°C
Dew point
-19°C
Humidity
84%
Weather condition
n/a

Description

Airport serving Kuujjuaq, Quebec.

Climatology

Tundra climate (Köppen climate classification ET) - warmest month has an average temperature of 0 - 10 degrees C.

Runways

Designator Length Width Surface Rops
13/31 1524 46 GVL Yes/Yes
7/25 1829 46 ASP Yes/Yes

Airport map

Aerial View

SKYbrary Partners:

Safety knowledge contributed by: